createdAt,value
2022-12-25T00:01:48.932Z,94.55
2022-12-25T00:04:15.489Z,94.43
2022-12-25T00:06:42.021Z,94.66
2022-12-25T00:09:08.511Z,94.77
2022-12-25T00:11:35.099Z,94.56
2022-12-25T00:14:01.761Z,94.30
2022-12-25T00:16:28.491Z,94.05
2022-12-25T00:18:56.741Z,94.11
2022-12-25T00:21:23.359Z,93.74
2022-12-25T00:23:54.573Z,93.55
2022-12-25T00:26:21.195Z,93.02
2022-12-25T00:28:47.933Z,92.79
2022-12-25T00:31:16.940Z,92.86
2022-12-25T00:33:46.840Z,92.92
2022-12-25T00:36:15.479Z,93.06
2022-12-25T00:38:43.028Z,93.14
2022-12-25T00:41:14.250Z,93.03
2022-12-25T00:43:44.520Z,93.37
2022-12-25T00:46:13.162Z,93.55
2022-12-25T00:48:40.451Z,93.12
2022-12-25T00:51:08.887Z,93.04
2022-12-25T00:53:35.412Z,93.01
2022-12-25T00:56:05.030Z,92.83
2022-12-25T00:58:33.486Z,92.65
2022-12-25T01:01:00.168Z,92.59
2022-12-25T01:03:26.909Z,93.30
2022-12-25T01:06:02.381Z,92.82
2022-12-25T01:08:30.787Z,92.98
2022-12-25T01:10:59.571Z,93.36
2022-12-25T01:13:26.305Z,93.04
2022-12-25T01:15:52.866Z,93.00
2022-12-25T01:18:20.248Z,93.01
2022-12-25T01:20:47.304Z,93.19
2022-12-25T01:23:14.383Z,93.07
2022-12-25T01:25:41.366Z,93.86
2022-12-25T01:28:08.246Z,93.83
2022-12-25T01:30:35.600Z,93.29
2022-12-25T01:33:02.176Z,93.71
2022-12-25T01:35:28.731Z,93.78
2022-12-25T01:37:55.597Z,93.89
2022-12-25T01:40:22.206Z,93.85
2022-12-25T01:42:48.723Z,94.30
2022-12-25T01:45:33.838Z,94.13
2022-12-25T01:48:08.696Z,93.63
2022-12-25T01:50:39.222Z,93.36
2022-12-25T01:53:06.926Z,93.41
2022-12-25T01:55:35.362Z,93.36
2022-12-25T01:58:02.764Z,93.20
2022-12-25T02:00:29.325Z,93.07
2022-12-25T02:02:59.598Z,93.40
2022-12-25T02:05:31.894Z,93.91
2022-12-25T02:08:02.191Z,93.61
2022-12-25T02:10:29.454Z,94.03
2022-12-25T02:12:56.287Z,93.97
2022-12-25T02:15:30.386Z,94.10
2022-12-25T02:18:02.926Z,93.82
2022-12-25T02:20:41.550Z,94.18
2022-12-25T02:23:30.012Z,93.31
2022-12-25T02:26:23.892Z,93.71
2022-12-25T02:29:03.516Z,93.75
2022-12-25T02:31:41.196Z,93.61
2022-12-25T02:34:17.240Z,93.65
2022-12-25T02:36:56.389Z,93.46
2022-12-25T02:39:57.967Z,93.42
2022-12-25T02:43:04.037Z,93.34
2022-12-25T02:45:59.243Z,93.58
2022-12-25T02:48:49.073Z,93.73
2022-12-25T02:51:45.761Z,93.39
2022-12-25T02:54:36.651Z,93.50
2022-12-25T02:57:25.998Z,93.35
2022-12-25T03:00:14.986Z,93.06
2022-12-25T03:03:02.161Z,93.21
2022-12-25T03:05:50.915Z,93.27
2022-12-25T03:08:23.194Z,92.90
2022-12-25T03:11:15.736Z,92.92
2022-12-25T03:13:46.475Z,93.23
2022-12-25T03:16:31.699Z,93.21
2022-12-25T03:18:59.516Z,93.37
2022-12-25T03:21:44.691Z,93.73
2022-12-25T03:24:30.091Z,93.59
2022-12-25T03:26:57.552Z,93.77
2022-12-25T03:29:51.449Z,93.93
2022-12-25T03:32:40.989Z,94.03
2022-12-25T03:35:25.788Z,94.20
2022-12-25T03:38:24.391Z,94.09
2022-12-25T03:41:33.724Z,93.78
2022-12-25T03:44:46.452Z,94.02
2022-12-25T03:47:46.017Z,94.05
2022-12-25T03:50:55.034Z,93.90
2022-12-25T03:53:58.203Z,93.62
2022-12-25T03:56:44.650Z,93.20
2022-12-25T03:59:29.859Z,93.26
2022-12-25T04:02:15.207Z,93.22
2022-12-25T04:05:00.688Z,93.01
2022-12-25T04:07:45.862Z,93.03
2022-12-25T04:10:31.109Z,93.04
2022-12-25T04:13:16.363Z,92.53
2022-12-25T04:16:01.611Z,92.38
2022-12-25T04:18:46.606Z,92.26
2022-12-25T04:21:31.782Z,92.52
2022-12-25T04:24:16.691Z,92.73
2022-12-25T04:27:01.961Z,92.76
2022-12-25T04:29:47.248Z,92.61
2022-12-25T04:32:32.432Z,92.40
2022-12-25T04:35:17.882Z,92.04
2022-12-25T04:37:44.491Z,92.22
2022-12-25T04:40:11.362Z,92.11
2022-12-25T04:42:37.973Z,91.98
2022-12-25T04:45:05.146Z,91.75
2022-12-25T04:47:33.292Z,91.80
2022-12-25T04:49:59.886Z,91.87
2022-12-25T04:52:26.490Z,91.89
2022-12-25T04:54:53.346Z,92.21
2022-12-25T04:57:20.009Z,92.25
2022-12-25T04:59:46.743Z,91.94
2022-12-25T05:02:13.415Z,91.78
2022-12-25T05:04:40.006Z,91.72
2022-12-25T05:07:06.552Z,91.96
2022-12-25T05:09:33.051Z,91.81
2022-12-25T05:11:59.663Z,91.39
2022-12-25T05:14:26.270Z,91.93
2022-12-25T05:16:52.818Z,92.15
2022-12-25T05:19:19.321Z,92.00
2022-12-25T05:21:45.861Z,92.44
2022-12-25T05:24:12.414Z,92.03
2022-12-25T05:26:38.945Z,91.80
2022-12-25T05:29:06.069Z,91.44
2022-12-25T05:31:32.907Z,91.86
2022-12-25T05:34:03.385Z,91.58
2022-12-25T05:36:29.861Z,91.26
2022-12-25T05:38:56.429Z,91.61
2022-12-25T05:41:23.050Z,92.01
2022-12-25T05:43:49.584Z,91.71
2022-12-25T05:46:16.351Z,92.18
2022-12-25T05:48:43.000Z,92.57
2022-12-25T05:51:12.059Z,92.06
2022-12-25T05:53:39.586Z,91.72
2022-12-25T05:56:07.683Z,91.51
2022-12-25T05:58:36.391Z,91.39
2022-12-25T06:01:03.252Z,91.39
2022-12-25T06:03:30.167Z,91.23
2022-12-25T06:05:56.851Z,91.43
2022-12-25T06:08:24.174Z,91.55
2022-12-25T06:10:50.675Z,92.13
2022-12-25T06:13:18.018Z,92.41
2022-12-25T06:15:44.578Z,92.47
2022-12-25T06:18:11.120Z,92.19
2022-12-25T06:20:40.971Z,92.49
2022-12-25T06:23:07.680Z,92.84
2022-12-25T06:25:34.279Z,92.55
2022-12-25T06:28:00.982Z,92.98
2022-12-25T06:30:27.453Z,93.34
2022-12-25T06:32:54.006Z,92.81
2022-12-25T06:35:20.557Z,92.57
2022-12-25T06:37:47.036Z,92.75
2022-12-25T06:40:13.984Z,93.18
2022-12-25T06:42:40.583Z,92.81
2022-12-25T06:45:07.838Z,92.81
2022-12-25T06:47:34.528Z,92.98
2022-12-25T06:50:01.070Z,93.09
2022-12-25T06:52:27.646Z,93.25
2022-12-25T06:54:54.376Z,93.36
2022-12-25T06:57:20.957Z,93.36
2022-12-25T06:59:51.394Z,93.54
2022-12-25T07:02:23.883Z,93.49
2022-12-25T07:04:51.392Z,93.59
2022-12-25T07:07:18.148Z,93.54
2022-12-25T07:09:44.868Z,93.85
2022-12-25T07:12:20.386Z,94.38
2022-12-25T07:14:50.134Z,94.18
2022-12-25T07:17:17.873Z,93.96
2022-12-25T07:19:45.449Z,93.78
2022-12-25T07:22:12.745Z,93.85
2022-12-25T07:24:39.245Z,93.88
2022-12-25T07:27:06.117Z,93.33
2022-12-25T07:29:32.796Z,92.50
2022-12-25T07:31:59.442Z,92.44
2022-12-25T07:34:26.436Z,92.14
2022-12-25T07:36:54.752Z,91.80
2022-12-25T07:39:21.413Z,92.36
2022-12-25T07:41:47.971Z,92.06
2022-12-25T07:44:15.042Z,92.76
2022-12-25T07:46:41.692Z,92.63
2022-12-25T07:49:08.173Z,92.48
2022-12-25T07:51:34.857Z,92.14
2022-12-25T07:54:01.521Z,91.91
2022-12-25T07:56:28.340Z,91.61
2022-12-25T07:58:54.970Z,91.92
2022-12-25T08:01:27.125Z,92.09
2022-12-25T08:03:56.491Z,92.23
2022-12-25T08:06:26.884Z,91.51
2022-12-25T08:08:53.445Z,91.61
2022-12-25T08:11:20.007Z,91.54
2022-12-25T08:13:46.557Z,91.54
2022-12-25T08:16:13.245Z,91.76
2022-12-25T08:18:40.663Z,91.76
2022-12-25T08:21:10.537Z,91.17
2022-12-25T08:23:39.540Z,91.31
2022-12-25T08:26:08.504Z,91.80
2022-12-25T08:28:36.098Z,91.56
2022-12-25T08:31:16.924Z,91.60
2022-12-25T08:33:44.310Z,90.83
2022-12-25T08:36:12.781Z,91.07
2022-12-25T08:38:39.680Z,91.04
2022-12-25T08:41:06.923Z,90.99
2022-12-25T08:43:33.457Z,91.25
2022-12-25T08:46:00.112Z,90.94
2022-12-25T08:48:27.550Z,91.27
2022-12-25T08:50:54.824Z,91.03
2022-12-25T08:53:21.595Z,91.11
2022-12-25T08:55:48.075Z,91.19
2022-12-25T08:58:14.767Z,90.85
2022-12-25T09:00:41.347Z,90.85
2022-12-25T09:03:07.971Z,90.81
2022-12-25T09:05:36.136Z,90.79
2022-12-25T09:08:02.869Z,90.44
2022-12-25T09:10:29.855Z,90.38
2022-12-25T09:12:56.450Z,90.42
2022-12-25T09:15:22.982Z,90.44
2022-12-25T09:17:49.457Z,90.06
2022-12-25T09:20:15.954Z,89.83
2022-12-25T09:22:42.501Z,90.11
2022-12-25T09:25:09.490Z,90.01
2022-12-25T09:27:36.229Z,90.12
2022-12-25T09:30:03.212Z,89.98
2022-12-25T09:32:29.737Z,89.67
2022-12-25T09:34:56.215Z,89.91
2022-12-25T09:37:22.750Z,89.67
2022-12-25T09:39:49.309Z,89.38
2022-12-25T09:42:34.616Z,90.18
2022-12-25T09:45:05.852Z,89.86
2022-12-25T09:47:35.981Z,89.28
2022-12-25T09:50:13.933Z,89.29
2022-12-25T09:52:55.233Z,89.92
2022-12-25T09:55:24.598Z,90.61
2022-12-25T09:57:59.432Z,90.58
2022-12-25T10:00:33.676Z,89.56
2022-12-25T10:03:22.132Z,89.51
2022-12-25T10:06:07.184Z,88.96
2022-12-25T10:08:54.254Z,88.99
2022-12-25T10:11:52.978Z,88.74
2022-12-25T10:14:41.223Z,88.95
2022-12-25T10:17:33.229Z,89.37
2022-12-25T10:20:07.995Z,89.66
2022-12-25T10:22:40.691Z,89.76
2022-12-25T10:25:17.085Z,89.45
2022-12-25T10:27:43.702Z,89.25
2022-12-25T10:30:24.692Z,88.73
2022-12-25T10:32:52.879Z,88.17
2022-12-25T10:35:23.113Z,88.14
2022-12-25T10:37:58.681Z,87.60
2022-12-25T10:40:31.377Z,87.04
2022-12-25T10:43:08.163Z,87.31
2022-12-25T10:45:46.687Z,86.76
2022-12-25T10:48:28.013Z,87.33
2022-12-25T10:50:55.857Z,87.80
2022-12-25T10:53:25.985Z,87.49
2022-12-25T10:56:00.052Z,86.79
2022-12-25T10:58:27.585Z,87.10
2022-12-25T11:01:02.442Z,87.31
2022-12-25T11:03:35.930Z,87.04
2022-12-25T11:06:03.020Z,87.53
2022-12-25T11:08:33.201Z,86.78
2022-12-25T11:11:08.176Z,86.52
2022-12-25T11:13:40.818Z,86.24
2022-12-25T11:16:13.133Z,85.78
2022-12-25T11:18:51.498Z,85.76
2022-12-25T11:21:30.479Z,85.21
2022-12-25T11:24:01.610Z,85.86
2022-12-25T11:26:30.310Z,86.43
2022-12-25T11:28:57.724Z,86.85
2022-12-25T11:31:39.510Z,86.72
2022-12-25T11:34:28.743Z,85.96
2022-12-25T11:36:55.746Z,85.89
2022-12-25T11:39:36.157Z,85.96
2022-12-25T11:42:08.619Z,85.77
2022-12-25T11:44:46.701Z,86.27
2022-12-25T11:47:27.834Z,85.93
2022-12-25T11:50:38.697Z,86.10
2022-12-25T11:53:27.434Z,86.32
2022-12-25T11:56:10.316Z,86.68
2022-12-25T11:58:44.189Z,86.18
2022-12-25T12:01:18.965Z,85.94
2022-12-25T12:03:45.811Z,86.67
2022-12-25T12:06:44.401Z,86.64
2022-12-25T12:09:47.656Z,86.67
2022-12-25T12:12:26.831Z,86.93
2022-12-25T12:15:07.433Z,86.40
2022-12-25T12:17:34.116Z,86.65
2022-12-25T12:20:11.995Z,86.77
2022-12-25T12:22:39.349Z,86.33
2022-12-25T12:25:07.985Z,86.42
2022-12-25T12:27:40.485Z,86.91
2022-12-25T12:30:28.083Z,87.08
2022-12-25T12:33:01.258Z,87.27
2022-12-25T12:35:34.213Z,86.93
2022-12-25T12:38:04.630Z,87.07
2022-12-25T12:40:33.728Z,86.90
2022-12-25T12:43:00.823Z,86.50
2022-12-25T12:45:32.282Z,86.28
2022-12-25T12:47:59.243Z,86.56
2022-12-25T12:50:41.064Z,86.07
2022-12-25T12:53:16.637Z,86.36
2022-12-25T12:55:43.183Z,86.26
2022-12-25T12:58:25.146Z,86.36
2022-12-25T13:01:26.851Z,86.64
2022-12-25T13:04:28.686Z,86.46
2022-12-25T13:06:59.227Z,85.95
2022-12-25T13:09:52.065Z,86.40
2022-12-25T13:12:20.224Z,87.17
2022-12-25T13:14:48.181Z,87.24
2022-12-25T13:17:18.792Z,86.87
2022-12-25T13:19:46.221Z,86.45
2022-12-25T13:22:30.997Z,86.30
2022-12-25T13:24:59.803Z,86.39
2022-12-25T13:27:29.345Z,86.65
2022-12-25T13:29:56.758Z,86.78
2022-12-25T13:32:29.905Z,86.17
2022-12-25T13:34:57.173Z,86.13
2022-12-25T13:37:27.114Z,86.20
2022-12-25T13:39:55.553Z,86.42
2022-12-25T13:42:33.832Z,86.29
2022-12-25T13:45:06.275Z,87.21
2022-12-25T13:47:34.000Z,86.78
2022-12-25T13:50:14.307Z,86.77
2022-12-25T13:52:40.820Z,87.08
2022-12-25T13:55:36.789Z,87.02
2022-12-25T13:58:05.907Z,86.94
2022-12-25T14:00:35.172Z,86.92
2022-12-25T14:03:04.402Z,87.53
2022-12-25T14:05:42.071Z,87.23
2022-12-25T14:08:16.113Z,87.34
2022-12-25T14:10:46.047Z,87.20
2022-12-25T14:13:14.634Z,86.87
2022-12-25T14:15:41.980Z,87.19
2022-12-25T14:18:15.712Z,86.89
2022-12-25T14:21:07.280Z,86.96
2022-12-25T14:23:54.435Z,86.92
2022-12-25T14:26:24.124Z,87.21
2022-12-25T14:28:54.252Z,87.32
2022-12-25T14:31:21.880Z,87.70
2022-12-25T14:33:49.164Z,87.29
2022-12-25T14:36:16.204Z,87.04
2022-12-25T14:38:44.273Z,87.88
2022-12-25T14:41:33.566Z,88.05
2022-12-25T14:44:02.495Z,87.83
2022-12-25T14:46:31.387Z,87.92
2022-12-25T14:49:02.976Z,88.65
2022-12-25T14:51:31.795Z,88.90
2022-12-25T14:54:01.980Z,88.89
2022-12-25T14:56:38.147Z,89.20
2022-12-25T14:59:09.641Z,89.63
2022-12-25T15:01:41.929Z,89.50
2022-12-25T15:04:11.577Z,89.66
2022-12-25T15:06:54.905Z,89.66
2022-12-25T15:09:22.977Z,89.60
2022-12-25T15:11:51.312Z,90.02
2022-12-25T15:14:17.926Z,90.26
2022-12-25T15:16:51.249Z,90.50
2022-12-25T15:19:25.397Z,90.13
2022-12-25T15:21:53.941Z,90.40
2022-12-25T15:24:20.430Z,90.19
2022-12-25T15:26:47.442Z,90.43
2022-12-25T15:29:13.920Z,90.36
2022-12-25T15:31:41.237Z,90.61
2022-12-25T15:34:17.265Z,90.64
2022-12-25T15:36:43.770Z,90.77
2022-12-25T15:39:10.297Z,91.16
2022-12-25T15:41:56.875Z,90.89
2022-12-25T15:44:24.249Z,91.03
2022-12-25T15:46:51.001Z,91.17
2022-12-25T15:49:18.047Z,91.39
2022-12-25T15:51:45.578Z,91.34
2022-12-25T15:54:12.575Z,91.33
2022-12-25T15:56:45.576Z,91.22
2022-12-25T15:59:13.844Z,91.50
2022-12-25T16:01:47.297Z,91.03
2022-12-25T16:04:13.975Z,91.09
2022-12-25T16:06:40.811Z,91.34
2022-12-25T16:09:09.551Z,91.52
2022-12-25T16:11:36.134Z,91.09
2022-12-25T16:14:02.701Z,91.65
2022-12-25T16:16:29.259Z,91.76
2022-12-25T16:18:55.760Z,91.82
2022-12-25T16:21:23.840Z,91.94
2022-12-25T16:23:50.460Z,92.01
2022-12-25T16:26:17.374Z,91.80
2022-12-25T16:28:43.956Z,92.26
2022-12-25T16:31:11.741Z,92.07
2022-12-25T16:33:38.461Z,92.14
2022-12-25T16:36:05.994Z,92.18
2022-12-25T16:38:32.573Z,92.33
2022-12-25T16:41:00.662Z,92.28
2022-12-25T16:43:27.843Z,92.34
2022-12-25T16:45:54.480Z,92.58
2022-12-25T16:48:21.205Z,92.32
2022-12-25T16:50:47.719Z,92.11
2022-12-25T16:53:14.275Z,92.43
2022-12-25T16:55:40.883Z,92.47
2022-12-25T16:58:07.683Z,92.08
2022-12-25T17:00:34.220Z,92.41
2022-12-25T17:03:01.357Z,92.88
2022-12-25T17:05:28.137Z,92.55
2022-12-25T17:07:54.637Z,92.51
2022-12-25T17:10:21.822Z,92.50
2022-12-25T17:12:48.318Z,92.50
2022-12-25T17:15:14.913Z,92.42
2022-12-25T17:17:41.762Z,92.46
2022-12-25T17:20:08.890Z,92.57
2022-12-25T17:22:35.429Z,92.68
2022-12-25T17:25:02.068Z,92.31
2022-12-25T17:27:28.621Z,92.38
2022-12-25T17:29:55.202Z,92.81
2022-12-25T17:32:21.893Z,92.61
2022-12-25T17:34:48.512Z,93.23
2022-12-25T17:37:15.185Z,93.18
2022-12-25T17:39:41.884Z,93.17
2022-12-25T17:42:08.349Z,92.89
2022-12-25T17:44:34.912Z,92.96
2022-12-25T17:47:01.699Z,93.40
2022-12-25T17:49:28.275Z,93.25
2022-12-25T17:51:54.944Z,93.35
2022-12-25T17:54:21.504Z,93.24
2022-12-25T17:56:48.281Z,93.35
2022-12-25T17:59:18.617Z,93.60
2022-12-25T18:01:46.865Z,93.58
2022-12-25T18:04:13.979Z,93.73
2022-12-25T18:06:41.688Z,93.88
2022-12-25T18:09:09.861Z,94.09
2022-12-25T18:11:39.414Z,94.06
2022-12-25T18:14:07.957Z,93.99
2022-12-25T18:16:38.416Z,93.98
2022-12-25T18:19:05.844Z,94.27
2022-12-25T18:21:32.478Z,94.28
2022-12-25T18:23:58.972Z,94.41
2022-12-25T18:26:26.140Z,94.44
2022-12-25T18:28:52.933Z,94.40
2022-12-25T18:31:22.348Z,94.57
2022-12-25T18:33:50.178Z,94.74
2022-12-25T18:36:20.390Z,94.64
2022-12-25T18:38:48.922Z,94.50
2022-12-25T18:41:16.095Z,94.91
2022-12-25T18:43:52.320Z,95.15
2022-12-25T18:46:25.880Z,95.08
2022-12-25T18:48:56.160Z,95.50
2022-12-25T18:51:22.942Z,95.49
2022-12-25T18:53:49.855Z,95.47
2022-12-25T18:56:18.242Z,95.42
2022-12-25T18:58:46.358Z,95.53
2022-12-25T19:01:17.320Z,95.90
2022-12-25T19:03:45.410Z,95.58
2022-12-25T19:06:19.837Z,95.67
2022-12-25T19:08:46.636Z,95.77
2022-12-25T19:11:13.359Z,95.69
2022-12-25T19:13:40.020Z,95.75
2022-12-25T19:16:06.713Z,95.74
2022-12-25T19:18:33.291Z,95.92
2022-12-25T19:21:04.674Z,95.60
2022-12-25T19:23:31.536Z,95.60
2022-12-25T19:25:58.203Z,95.65
2022-12-25T19:28:25.355Z,95.70
2022-12-25T19:30:54.020Z,95.64
2022-12-25T19:33:21.830Z,95.74
2022-12-25T19:35:49.035Z,95.71
2022-12-25T19:38:16.483Z,96.01
2022-12-25T19:41:00.752Z,95.90
2022-12-25T19:43:33.734Z,95.95
2022-12-25T19:46:01.861Z,96.00
2022-12-25T19:48:29.408Z,96.14
2022-12-25T19:50:56.038Z,95.66
2022-12-25T19:53:25.436Z,95.82
2022-12-25T19:55:53.675Z,96.06
2022-12-25T19:58:21.727Z,95.72
2022-12-25T20:01:05.177Z,95.48
2022-12-25T20:03:33.169Z,95.58
2022-12-25T20:06:00.171Z,95.52
2022-12-25T20:08:26.673Z,95.56
2022-12-25T20:10:53.292Z,95.72
2022-12-25T20:13:20.622Z,95.53
2022-12-25T20:15:47.272Z,95.72
2022-12-25T20:18:14.492Z,95.65
2022-12-25T20:20:41.241Z,95.86
2022-12-25T20:23:07.781Z,95.53
2022-12-25T20:25:34.523Z,95.82
2022-12-25T20:28:01.048Z,96.10
2022-12-25T20:30:27.681Z,96.15
2022-12-25T20:32:55.292Z,96.09
2022-12-25T20:35:21.842Z,96.17
2022-12-25T20:37:48.545Z,96.00
2022-12-25T20:40:16.260Z,96.00
2022-12-25T20:42:43.469Z,96.25
2022-12-25T20:45:12.549Z,95.88
2022-12-25T20:47:39.274Z,95.94
2022-12-25T20:50:06.521Z,95.95
2022-12-25T20:52:32.991Z,96.15
2022-12-25T20:54:59.495Z,96.12
2022-12-25T20:57:26.132Z,95.77
2022-12-25T20:59:53.535Z,96.03
2022-12-25T21:02:35.977Z,95.79
2022-12-25T21:05:05.088Z,96.04
2022-12-25T21:07:31.625Z,95.80
2022-12-25T21:09:59.220Z,96.16
2022-12-25T21:12:26.132Z,95.87
2022-12-25T21:14:52.621Z,96.05
2022-12-25T21:17:19.246Z,95.95
2022-12-25T21:19:45.849Z,96.39
2022-12-25T21:22:12.754Z,96.20
2022-12-25T21:24:39.244Z,96.14
2022-12-25T21:27:05.740Z,96.42
2022-12-25T21:29:32.298Z,96.49
2022-12-25T21:32:17.225Z,96.36
2022-12-25T21:34:43.899Z,96.51
2022-12-25T21:37:10.377Z,96.71
2022-12-25T21:39:37.019Z,96.54
2022-12-25T21:42:04.725Z,96.35
2022-12-25T21:44:31.279Z,96.89
2022-12-25T21:46:57.876Z,96.62
2022-12-25T21:49:43.054Z,96.66
2022-12-25T21:52:09.828Z,96.38
2022-12-25T21:54:36.776Z,96.34
2022-12-25T21:57:03.566Z,96.55
2022-12-25T21:59:30.164Z,96.56
2022-12-25T22:01:56.836Z,96.53
2022-12-25T22:04:23.717Z,96.64
2022-12-25T22:07:09.253Z,96.44
2022-12-25T22:09:36.008Z,96.57
2022-12-25T22:12:21.841Z,96.33
2022-12-25T22:14:54.945Z,96.63
2022-12-25T22:17:45.538Z,96.47
2022-12-25T22:20:15.774Z,96.44
2022-12-25T22:22:42.729Z,96.60
2022-12-25T22:25:10.971Z,96.60
2022-12-25T22:27:39.292Z,96.71
2022-12-25T22:30:08.269Z,96.53
2022-12-25T22:32:34.915Z,96.63
2022-12-25T22:35:01.496Z,96.65
2022-12-25T22:37:28.133Z,96.43
2022-12-25T22:39:54.732Z,96.56
2022-12-25T22:42:21.610Z,96.31
2022-12-25T22:44:48.292Z,96.55
2022-12-25T22:47:15.449Z,95.95
2022-12-25T22:49:42.078Z,96.36
2022-12-25T22:52:09.918Z,96.17
2022-12-25T22:54:36.919Z,96.10
2022-12-25T22:57:03.775Z,96.29
2022-12-25T22:59:30.381Z,95.81
2022-12-25T23:01:57.092Z,95.95
2022-12-25T23:04:24.053Z,95.84
2022-12-25T23:06:51.371Z,95.52
2022-12-25T23:09:24.793Z,95.43
2022-12-25T23:11:51.661Z,95.34
2022-12-25T23:14:36.757Z,95.10
2022-12-25T23:17:03.325Z,94.71
2022-12-25T23:19:48.538Z,94.82
2022-12-25T23:22:33.981Z,94.46
2022-12-25T23:25:18.937Z,94.31
2022-12-25T23:27:46.048Z,94.26
2022-12-25T23:30:15.614Z,93.97
2022-12-25T23:32:44.016Z,93.90
2022-12-25T23:35:11.503Z,93.73
2022-12-25T23:37:38.081Z,93.26
2022-12-25T23:40:05.182Z,92.96
2022-12-25T23:42:31.664Z,93.28
2022-12-25T23:44:58.208Z,93.35
2022-12-25T23:47:24.740Z,93.25
2022-12-25T23:49:51.365Z,93.22
2022-12-25T23:52:17.854Z,93.26
2022-12-25T23:54:44.355Z,93.31
2022-12-25T23:57:10.821Z,92.89
2022-12-25T23:59:37.282Z,93.09
